Dwight, Kansas
Current Conditions -  °F | °C
As of 6:58 PM on Monday 20 Oct 2014 (Local Time) from KFRI Reporting Station
Haze Haze  
Wind Chill: 65°   Ceiling: Unl
Heat Index: 65°   Visibility: 6mi
Dew Point: 48°   Wind: 0mph
Humidity: 53%   Direction: NA
Pressure: 30.04"   Gusts: NA
Location:  38.84°N, 96.59°W
Report Text: KFRI 202358Z AUTO 00000KT 6SM HZ CLR 18/09 A3004 RMK AO2 SLP170 60000 T01840087 10251 20184 52003
Loading
Personal Weather Stations






























Interactive Weather Map
Tropical Storm Tracking
New forecast layout! Learn more

10-Day Weather Forecast

Advertisements
Track Severe Weather on mobile